Time;durP1;ratioP1;P1;durP2;ratioP2;P2;SDS_P1;SDS_P2;PMS_P1;PMS_P2;Temp;Humidity;BMP_temperature;BMP_pressure;BME280_temperature;BME280_humidity;BME280_pressure;Samples;Min_cycle;Max_cycle;Signal;HPM_P1;HPM_P2
2022/04/13 00:00:37;;;;;;;13.57;9.60;;;12.30;99.90;;;;;;6256718;22;20022;-90
2022/04/13 00:03:03;;;;;;;16.20;9.67;;;12.30;99.90;;;;;;6257003;22;20023;-89
2022/04/13 00:05:28;;;;;;;13.57;8.43;;;12.30;99.90;;;;;;6282442;22;20436;-89
2022/04/13 00:07:55;;;;;;;15.97;9.20;;;12.30;99.90;;;;;;6282617;22;20464;-90
2022/04/13 00:10:21;;;;;;;14.73;9.20;;;12.20;99.90;;;;;;6256933;22;20003;-91
2022/04/13 00:12:46;;;;;;;13.97;9.37;;;12.30;99.90;;;;;;6282553;22;20392;-90
2022/04/13 00:15:12;;;;;;;12.43;8.70;;;12.20;99.90;;;;;;6282810;22;20019;-90
2022/04/13 00:17:38;;;;;;;13.20;9.10;;;12.20;99.90;;;;;;6256640;22;20077;-89
2022/04/13 00:20:05;;;;;;;12.13;8.00;;;12.10;99.90;;;;;;6256383;22;20011;-90
2022/04/13 00:22:31;;;;;;;11.98;8.48;;;12.10;99.90;;;;;;6256822;22;20030;-90
2022/04/13 00:24:57;;;;;;;11.35;8.40;;;12.00;99.90;;;;;;6256642;22;20015;-89
2022/04/13 00:27:23;;;;;;;12.07;8.10;;;12.00;99.90;;;;;;6282727;22;20014;-90
2022/04/13 00:29:49;;;;;;;12.13;8.43;;;11.90;99.90;;;;;;6256902;22;20015;-90
2022/04/13 00:32:15;;;;;;;12.70;8.00;;;11.90;99.90;;;;;;6282402;22;20026;-90
2022/04/13 00:34:41;;;;;;;12.50;8.75;;;11.80;99.90;;;;;;6257002;22;20007;-91
2022/04/13 00:37:07;;;;;;;13.23;8.20;;;11.80;99.90;;;;;;6257091;22;20475;-91
2022/04/13 00:39:33;;;;;;;12.15;8.30;;;11.70;99.90;;;;;;6256491;22;20065;-89
2022/04/13 00:42:05;;;;;;;14.13;8.57;;;11.80;99.90;;;;;;6256508;22;20019;-89
2022/04/13 00:44:31;;;;;;;11.32;8.02;;;11.70;99.90;;;;;;6256537;22;20018;-89
2022/04/13 00:47:01;;;;;;;11.93;8.82;;;11.70;99.90;;;;;;6256786;22;20038;-91
2022/04/13 00:49:27;;;;;;;13.93;9.15;;;11.70;99.90;;;;;;6256709;22;20098;-90
2022/04/13 00:51:53;;;;;;;13.43;8.80;;;11.70;99.90;;;;;;6256655;22;20022;-90
2022/04/13 00:54:21;;;;;;;11.15;8.02;;;11.70;99.90;;;;;;6256936;22;20018;-90
2022/04/13 00:56:51;;;;;;;13.27;8.52;;;11.70;99.90;;;;;;6257004;22;20016;-90
2022/04/13 00:59:17;;;;;;;11.18;7.80;;;11.70;99.90;;;;;;6257102;22;20047;-91
2022/04/13 01:01:47;;;;;;;11.03;8.30;;;11.80;99.90;;;;;;6282244;22;20318;-90
2022/04/13 01:04:25;;;;;;;12.10;7.68;;;11.80;99.90;;;;;;6256564;22;20284;-90
2022/04/13 01:07:01;;;;;;;;;;;11.80;99.90;;;;;;6285113;22;20030;-89
2022/04/13 01:09:28;;;;;;;11.85;8.20;;;11.80;99.90;;;;;;6256333;22;19911;-90
2022/04/13 01:11:53;;;;;;;9.80;7.35;;;11.80;99.90;;;;;;6256471;22;20015;-91
2022/04/13 01:14:20;;;;;;;9.70;7.55;;;11.70;99.90;;;;;;6281868;22;20068;-90
2022/04/13 01:16:45;;;;;;;11.80;8.23;;;11.70;99.90;;;;;;6256334;22;20015;-90
2022/04/13 01:19:16;;;;;;;10.53;7.97;;;11.70;99.90;;;;;;6307610;22;20023;-90
2022/04/13 01:21:45;;;;;;;11.80;7.57;;;11.60;99.90;;;;;;6256313;22;20455;-89
2022/04/13 01:24:12;;;;;;;12.10;7.97;;;11.70;99.90;;;;;;6256251;22;20440;-89
2022/04/13 01:26:38;;;;;;;;;;;11.70;99.90;;;;;;6256931;22;20060;-90
2022/04/13 01:29:04;;;;;;;10.10;7.60;;;11.70;99.90;;;;;;6256247;22;20286;-89
2022/04/13 01:31:30;;;;;;;;;;;11.60;99.90;;;;;;6257161;22;20069;-89
2022/04/13 01:33:57;;;;;;;13.02;7.65;;;11.60;99.90;;;;;;6256053;22;19933;-90
2022/04/13 01:36:23;;;;;;;12.80;8.85;;;11.70;99.90;;;;;;6255996;22;20023;-90
2022/04/13 01:38:49;;;;;;;12.32;8.70;;;11.70;99.90;;;;;;6281769;22;20007;-90
2022/04/13 01:41:14;;;;;;;12.07;8.30;;;11.70;99.90;;;;;;6281791;22;20038;-90
2022/04/13 01:43:40;;;;;;;11.27;8.40;;;11.70;99.90;;;;;;6281746;22;20069;-91
2022/04/13 01:46:06;;;;;;;15.60;8.80;;;11.80;99.90;;;;;;6281999;22;20094;-91
2022/04/13 01:48:31;;;;;;;11.53;8.30;;;11.80;99.90;;;;;;6281981;22;20098;-90
2022/04/13 01:51:00;;;;;;;12.80;8.53;;;11.80;99.90;;;;;;6281757;22;20383;-89
2022/04/13 01:53:26;;;;;;;13.68;8.88;;;11.90;99.90;;;;;;6281818;22;20015;-90
2022/04/13 01:55:57;;;;;;;11.90;8.77;;;11.90;99.90;;;;;;6255869;22;20586;-91
2022/04/13 01:58:23;;;;;;;12.82;8.48;;;12.00;99.90;;;;;;6255996;22;20012;-91
2022/04/13 02:00:53;;;;;;;12.18;8.57;;;12.00;99.90;;;;;;6256018;22;20058;-91
2022/04/13 02:03:23;;;;;;;13.43;8.93;;;12.10;99.90;;;;;;6255748;22;20015;-89
2022/04/13 02:05:52;;;;;;;12.75;8.98;;;12.10;99.90;;;;;;6255806;22;20452;-90
2022/04/13 02:08:18;;;;;;;14.32;8.95;;;12.20;99.90;;;;;;6255859;22;20019;-90
2022/04/13 02:10:44;;;;;;;13.35;8.95;;;12.20;99.90;;;;;;6281437;22;20019;-90
2022/04/13 02:13:30;;;;;;;16.85;9.50;;;12.20;99.90;;;;;;6255768;22;20036;-90
2022/04/13 02:15:56;;;;;;;12.77;8.80;;;12.30;99.90;;;;;;6255723;22;20464;-90
2022/04/13 02:18:21;;;;;;;14.35;9.43;;;12.30;99.90;;;;;;6255645;22;20045;-89
2022/04/13 02:20:53;;;;;;;14.53;10.03;;;12.30;99.90;;;;;;6276238;22;20027;-91
2022/04/13 02:23:21;;;;;;;15.10;10.10;;;12.40;99.90;;;;;;6250708;22;20019;-90
2022/04/13 02:25:47;;;;;;;13.67;9.10;;;12.40;99.90;;;;;;6250913;22;20015;-91
2022/04/13 02:28:12;;;;;;;15.53;10.40;;;12.40;99.90;;;;;;6250913;22;20016;-91
2022/04/13 02:30:38;;;;;;;15.30;9.80;;;12.40;99.90;;;;;;6250480;22;20015;-91
2022/04/13 02:33:04;;;;;;;15.77;10.73;;;12.50;99.90;;;;;;6250198;22;20024;-91
2022/04/13 02:35:29;;;;;;;14.47;10.27;;;12.50;99.90;;;;;;6250735;22;20087;-91
2022/04/13 02:37:55;;;;;;;15.60;10.47;;;12.50;99.90;;;;;;6225478;22;20250;-92
2022/04/13 02:40:24;;;;;;;18.40;10.80;;;12.50;99.90;;;;;;6250464;22;20082;-91
2022/04/13 02:42:50;;;;;;;17.40;11.00;;;12.60;99.90;;;;;;6225749;22;20015;-90
2022/04/13 02:45:15;;;;;;;19.30;12.10;;;12.50;99.90;;;;;;6250586;22;20149;-90
2022/04/13 02:47:41;;;;;;;17.23;11.60;;;12.50;99.90;;;;;;6225736;22;20452;-90
2022/04/13 02:51:22;;;;;;;;;;;;;;;;;;;;;
2022/04/13 02:53:43;;;;;;;17.23;11.73;;;12.50;99.90;;;;;;6189176;22;20025;-93
2022/04/13 02:56:08;;;;;;;19.67;11.90;;;12.40;99.90;;;;;;6250348;22;20063;-92
2022/04/13 02:58:34;;;;;;;21.00;13.13;;;12.40;99.90;;;;;;6225518;22;20019;-91
2022/04/13 03:01:00;;;;;;;19.37;12.23;;;12.40;99.90;;;;;;6250919;22;20015;-92
2022/04/13 03:03:25;;;;;;;16.50;11.70;;;12.50;99.90;;;;;;6225453;22;20015;-91
2022/04/13 03:05:51;;;;;;;24.83;15.87;;;12.40;99.90;;;;;;6225120;22;20035;-92
2022/04/13 03:08:17;;;;;;;19.33;13.27;;;12.40;99.90;;;;;;6250192;22;20018;-92
2022/04/13 03:10:44;;;;;;;19.40;13.23;;;12.40;99.90;;;;;;6250717;22;20074;-91
2022/04/13 03:13:10;;;;;;;;;;;12.40;99.90;;;;;;6251244;22;20023;-91
2022/04/13 03:15:36;;;;;;;19.20;12.73;;;12.40;99.90;;;;;;6250228;22;19974;-92
2022/04/13 03:18:02;;;;;;;18.98;12.73;;;12.30;99.90;;;;;;6250469;22;20008;-90
2022/04/13 03:20:28;;;;;;;19.65;13.07;;;12.30;99.90;;;;;;6224114;22;20074;-91
2022/04/13 03:22:54;;;;;;;20.00;12.80;;;12.30;99.90;;;;;;6250129;22;20330;-91
2022/04/13 03:25:19;;;;;;;21.73;13.60;;;12.30;99.90;;;;;;6250115;22;20038;-93
2022/04/13 03:27:45;;;;;;;18.13;12.30;;;12.20;99.90;;;;;;6225044;22;20023;-92
2022/04/13 03:30:13;;;;;;;20.90;13.20;;;12.20;99.90;;;;;;6225082;22;20019;-92
2022/04/13 03:32:39;;;;;;;20.83;13.30;;;12.20;99.90;;;;;;6224847;22;20027;-93
2022/04/13 03:35:07;;;;;;;20.20;13.75;;;12.20;99.90;;;;;;6250332;22;20012;-91
2022/04/13 03:37:33;;;;;;;21.63;13.98;;;12.20;99.90;;;;;;6249920;22;20486;-93
2022/04/13 03:39:59;;;;;;;21.15;14.13;;;12.20;99.90;;;;;;6250413;22;20019;-93
2022/04/13 03:42:25;;;;;;;22.03;13.73;;;12.20;99.90;;;;;;6250041;22;20019;-93
2022/04/13 03:44:50;;;;;;;23.80;13.90;;;12.20;99.90;;;;;;6225110;22;20349;-92
2022/04/13 03:47:16;;;;;;;21.20;13.07;;;12.20;99.90;;;;;;6250315;22;20043;-92
2022/04/13 03:49:42;;;;;;;20.90;13.77;;;12.20;99.90;;;;;;6250267;22;20019;-95
2022/04/13 03:52:07;;;;;;;20.07;13.77;;;12.20;99.90;;;;;;6224929;22;20409;-92
2022/04/13 03:55:14;;;;;;;;;;;;;;;;;;;;;
2022/04/13 03:57:40;;;;;;;18.13;13.00;;;12.20;99.90;;;;;;6275352;22;20012;-93
2022/04/13 04:00:10;;;;;;;21.30;12.97;;;12.20;99.90;;;;;;6250259;22;20400;-92
2022/04/13 04:02:39;;;;;;;21.10;12.65;;;12.20;99.90;;;;;;6249946;22;20026;-91
2022/04/13 04:05:05;;;;;;;20.20;12.55;;;12.20;99.90;;;;;;6249891;22;20023;-91
2022/04/13 04:07:40;;;;;;;18.45;12.35;;;12.10;99.90;;;;;;6249183;22;20519;-91
2022/04/13 04:10:07;;;;;;;16.45;11.38;;;12.10;99.90;;;;;;6250042;22;20350;-91
2022/04/13 04:12:40;;;;;;;18.08;11.77;;;12.00;99.90;;;;;;6249960;22;20012;-91
2022/04/13 04:15:09;;;;;;;18.02;12.00;;;11.90;99.90;;;;;;6249834;22;20011;-90
2022/04/13 04:17:35;;;;;;;22.40;12.50;;;11.80;99.90;;;;;;6249887;22;20015;-91
2022/04/13 04:20:02;;;;;;;17.77;12.32;;;11.80;99.90;;;;;;6250211;22;20057;-91
2022/04/13 04:22:29;;;;;;;16.52;12.32;;;11.70;99.90;;;;;;6249848;22;20019;-91
2022/04/13 04:24:54;;;;;;;19.48;12.52;;;11.60;99.90;;;;;;6250097;22;20023;-91
2022/04/13 04:27:20;;;;;;;16.27;11.90;;;11.60;99.90;;;;;;6225467;22;20015;-91
2022/04/13 04:29:46;;;;;;;19.67;12.10;;;11.60;99.90;;;;;;6277509;22;20012;-91
2022/04/13 04:32:12;;;;;;;19.53;12.97;;;11.40;99.90;;;;;;6251769;22;20580;-92
2022/04/13 04:34:38;;;;;;;17.05;12.05;;;11.40;99.90;;;;;;6251596;22;20012;-92
2022/04/13 04:37:04;;;;;;;18.05;13.20;;;11.30;99.90;;;;;;6251729;22;20015;-91
2022/04/13 04:39:30;;;;;;;15.97;11.67;;;11.30;99.90;;;;;;6251808;22;20062;-91
2022/04/13 04:41:56;;;;;;;20.63;12.93;;;11.30;99.90;;;;;;6251744;22;20364;-92
2022/04/13 04:44:21;;;;;;;21.00;13.63;;;11.30;99.90;;;;;;6251799;22;20047;-90
2022/04/13 04:46:47;;;;;;;16.48;12.13;;;11.30;99.90;;;;;;6251356;22;20024;-91
2022/04/13 04:49:14;;;;;;;17.13;12.60;;;11.30;99.90;;;;;;6251524;22;20008;-91
2022/04/13 04:51:39;;;;;;;;;;;11.30;99.90;;;;;;6251810;22;20380;-92
2022/04/13 04:54:05;;;;;;;21.42;13.23;;;11.20;99.90;;;;;;6251341;22;19995;-91
2022/04/13 04:56:31;;;;;;;17.75;13.07;;;11.30;99.90;;;;;;6251482;22;20058;-92
2022/04/13 04:58:57;;;;;;;18.85;12.93;;;11.30;99.90;;;;;;6252114;22;20441;-89
2022/04/13 05:01:23;;;;;;;19.60;14.65;;;11.30;99.90;;;;;;6252633;22;20020;-92
2022/04/13 05:03:49;;;;;;;18.33;13.65;;;11.30;99.90;;;;;;6276311;22;20472;-92
2022/04/13 05:06:22;;;;;;;23.33;14.73;;;11.20;99.90;;;;;;6251187;22;20023;-94
2022/04/13 05:09:19;;;;;;;20.75;13.57;;;11.30;99.90;;;;;;6252123;22;20043;-92
2022/04/13 05:11:57;;;;;;;21.30;13.48;;;11.30;99.90;;;;;;6278684;22;20020;-92
2022/04/13 05:15:38;;;;;;;23.05;15.38;;;11.20;99.90;;;;;;6227687;22;20012;-95
2022/04/13 05:18:04;;;;;;;22.83;14.27;;;11.20;99.90;;;;;;6130839;23;20072;-92
2022/04/13 05:20:30;;;;;;;21.00;14.93;;;11.30;99.90;;;;;;6101418;23;20092;-92
2022/04/13 05:31:34;;;;;;;24.73;17.85;;;11.50;99.90;;;;;;6279689;22;20027;-90
2022/04/13 05:33:59;;;;;;;25.25;17.30;;;11.50;99.90;;;;;;6195367;23;20158;-90
2022/04/13 05:36:25;;;;;;;22.87;17.30;;;11.50;99.90;;;;;;6195963;23;20075;-92
2022/04/13 05:38:51;;;;;;;26.90;15.73;;;11.60;99.90;;;;;;6195900;23;20012;-92
2022/04/13 05:41:17;;;;;;;26.10;16.20;;;11.60;99.90;;;;;;6195944;23;20445;-92
2022/04/13 05:54:49;;;;;;;22.80;16.90;;;11.80;99.90;;;;;;6251769;22;20081;-89
2022/04/13 05:57:19;;;;;;;24.05;15.77;;;11.90;99.90;;;;;;6223453;22;20030;-89
2022/04/13 06:00:31;;;;;;;20.73;15.18;;;11.90;99.90;;;;;;6225015;22;20210;-89
2022/04/13 06:03:23;;;;;;;22.63;15.75;;;12.00;99.90;;;;;;6226111;22;20097;-90
2022/04/13 06:05:50;;;;;;;23.30;16.05;;;11.90;99.90;;;;;;6225389;22;20051;-90
2022/04/13 06:14:43;;;;;;;26.00;16.73;;;12.00;99.90;;;;;;6220698;22;20341;-93
2022/04/13 06:17:09;;;;;;;28.53;17.03;;;12.10;99.90;;;;;;6220459;23;20020;-91
2022/04/13 06:20:04;;;;;;;23.53;16.27;;;12.20;99.90;;;;;;6219900;23;20016;-92
2022/04/13 06:22:37;;;;;;;22.85;15.18;;;12.30;99.90;;;;;;6220060;23;20465;-92
2022/04/13 06:25:04;;;;;;;25.15;15.88;;;12.60;99.90;;;;;;6220324;23;20018;-92
2022/04/13 07:48:22;;;;;;;22.80;14.65;;;15.80;99.90;;;;;;6303481;22;20016;-89
2022/04/13 07:50:47;;;;;;;;;;;15.60;99.90;;;;;;6255466;22;20030;-89
2022/04/13 07:53:14;;;;;;;21.75;14.85;;;15.40;99.90;;;;;;6255045;22;19914;-88
2022/04/13 07:55:40;;;;;;;22.50;15.10;;;15.30;99.90;;;;;;6254585;22;20019;-90
2022/04/13 07:58:16;;;;;;;25.80;14.85;;;15.20;99.90;;;;;;6254914;22;20019;-90
2022/04/13 08:01:03;;;;;;;23.60;15.27;;;15.00;99.90;;;;;;6255277;22;20026;-90
2022/04/13 08:03:31;;;;;;;22.60;15.52;;;14.90;99.90;;;;;;6256747;22;20026;-89
2022/04/13 08:05:58;;;;;;;24.98;15.82;;;14.80;99.90;;;;;;6257402;22;20016;-91
2022/04/13 08:09:06;;;;;;;;;;;;;;;;;;;;;
2022/04/13 08:54:20;;;;;;;18.85;12.75;;;15.10;99.90;;;;;;6277768;22;20023;-88
2022/04/13 10:15:37;;;;;;;9.65;6.28;;;17.40;99.90;;;;;;6286158;22;20023;-90
2022/04/13 10:18:05;;;;;;;;;;;17.40;99.90;;;;;;6226033;22;20049;-87
2022/04/13 10:33:27;;;;;;;10.23;4.70;;;17.80;99.90;;;;;;6275014;22;20357;-89
2022/04/13 11:41:19;;;;;;;9.18;3.67;;;18.10;99.90;;;;;;6284686;22;20023;-90
2022/04/13 11:43:48;;;;;;;9.63;3.60;;;18.10;99.90;;;;;;6257910;22;20023;-91
2022/04/13 11:46:38;;;;;;;7.65;3.47;;;18.00;99.90;;;;;;6257627;22;20073;-92
2022/04/13 11:49:09;;;;;;;8.38;3.22;;;17.90;99.90;;;;;;6257587;22;20445;-91
2022/04/13 11:51:35;;;;;;;11.30;4.80;;;17.80;99.90;;;;;;6257554;22;20094;-91
2022/04/13 11:54:10;;;;;;;12.90;6.43;;;17.80;99.90;;;;;;6257694;22;20015;-93
2022/04/13 11:56:52;;;;;;;14.07;6.63;;;17.70;99.90;;;;;;6258172;22;20022;-93
2022/04/13 11:59:44;;;;;;;10.45;5.13;;;17.60;99.90;;;;;;6257495;22;20030;-91
2022/04/13 12:02:10;;;;;;;9.90;4.47;;;17.50;99.90;;;;;;6257372;22;20022;-92
2022/04/13 12:04:48;;;;;;;9.80;4.85;;;17.40;99.90;;;;;;6257941;22;20053;-94
2022/04/13 12:07:17;;;;;;;13.57;5.15;;;17.30;99.90;;;;;;6258059;22;20451;-92
2022/04/13 12:09:50;;;;;;;11.05;5.55;;;17.20;99.90;;;;;;6257928;22;20089;-93
2022/04/13 12:12:17;;;;;;;15.68;5.13;;;17.20;99.90;;;;;;6257287;22;20440;-93
2022/04/13 12:14:45;;;;;;;11.00;4.35;;;17.10;99.90;;;;;;6257264;22;20452;-91
2022/04/13 12:17:14;;;;;;;10.20;3.88;;;17.10;99.90;;;;;;6256803;22;20011;-88
2022/04/13 12:19:42;;;;;;;9.90;3.97;;;17.00;99.90;;;;;;6256897;22;20452;-89
2022/04/13 12:22:20;;;;;;;11.30;3.85;;;16.90;99.90;;;;;;6256820;22;20366;-91
2022/04/13 12:24:56;;;;;;;9.32;3.55;;;16.90;99.90;;;;;;6257065;22;20449;-90
2022/04/13 12:27:23;;;;;;;9.32;3.72;;;16.90;99.90;;;;;;6256759;22;20017;-90
2022/04/13 12:29:49;;;;;;;7.45;2.50;;;16.90;99.90;;;;;;6256795;22;20016;-87
2022/04/13 12:32:18;;;;;;;7.90;3.33;;;16.80;99.90;;;;;;6256456;22;20011;-89
2022/04/13 12:34:44;;;;;;;11.57;4.00;;;16.80;99.90;;;;;;6256958;22;20019;-89
2022/04/13 12:37:09;;;;;;;12.35;3.72;;;16.80;99.90;;;;;;6256766;22;20007;-90
2022/04/13 12:39:36;;;;;;;11.63;4.35;;;16.80;99.90;;;;;;6256689;22;20015;-88
2022/04/13 12:42:02;;;;;;;;;;;16.80;99.90;;;;;;6256939;22;20012;-90
2022/04/13 12:44:31;;;;;;;11.00;4.45;;;16.80;99.90;;;;;;6256474;22;20363;-89
2022/04/13 12:47:07;;;;;;;8.82;4.25;;;16.80;99.90;;;;;;6256475;22;20015;-89
2022/04/13 12:49:36;;;;;;;12.52;4.32;;;16.80;99.90;;;;;;6256487;22;20011;-90
2022/04/13 12:52:02;;;;;;;9.30;4.22;;;16.70;99.90;;;;;;6256550;22;20411;-91
2022/04/13 12:54:28;;;;;;;8.65;3.70;;;16.70;99.90;;;;;;6281905;22;20022;-88
2022/04/13 12:56:55;;;;;;;9.43;3.90;;;16.60;99.90;;;;;;6256503;22;20348;-90
2022/04/13 12:59:25;;;;;;;11.32;4.70;;;16.60;99.90;;;;;;6256484;22;20023;-89
2022/04/13 13:01:55;;;;;;;10.80;4.40;;;16.50;99.90;;;;;;6256588;22;20019;-90
2022/04/13 13:04:25;;;;;;;14.18;5.38;;;16.50;99.90;;;;;;6256519;22;20085;-89
2022/04/13 13:06:59;;;;;;;13.32;5.20;;;16.40;99.90;;;;;;6256526;22;20029;-90
2022/04/13 13:09:30;;;;;;;11.25;4.70;;;16.40;99.90;;;;;;6256620;22;20019;-90
2022/04/13 17:01:29;;;;;;;9.80;2.40;;;16.10;99.90;;;;;;6292356;22;20024;-88
2022/04/13 17:03:55;;;;;;;9.27;2.85;;;16.00;99.90;;;;;;6257545;22;20019;-85
2022/04/13 17:06:21;;;;;;;8.10;1.88;;;16.00;99.90;;;;;;6284478;22;20022;-87
2022/04/13 17:08:51;;;;;;;8.32;2.55;;;16.00;99.90;;;;;;6282818;22;20018;-87
2022/04/13 17:11:16;;;;;;;8.52;2.40;;;16.00;99.90;;;;;;6281087;22;20061;-87
2022/04/13 17:13:43;;;;;;;6.93;2.22;;;15.90;99.90;;;;;;6281454;22;20019;-87
2022/04/13 17:16:09;;;;;;;9.93;3.05;;;15.90;99.90;;;;;;6308958;22;20104;-87
2022/04/13 17:18:35;;;;;;;7.93;2.28;;;15.90;99.90;;;;;;6307115;22;20456;-87
2022/04/13 17:21:01;;;;;;;9.15;1.98;;;15.80;99.90;;;;;;6281464;22;20015;-87
2022/04/13 17:23:27;;;;;;;8.10;2.35;;;15.80;99.90;;;;;;6255637;22;20042;-87
2022/04/13 17:25:53;;;;;;;9.38;2.28;;;15.80;99.90;;;;;;6280865;22;20015;-87
2022/04/13 17:28:19;;;;;;;10.30;2.25;;;15.70;99.90;;;;;;6281076;22;20050;-87
2022/04/13 17:30:45;;;;;;;7.70;1.80;;;15.70;99.90;;;;;;6281112;22;20090;-86
2022/04/13 17:33:12;;;;;;;8.88;2.20;;;15.70;99.90;;;;;;6281140;22;20019;-87
2022/04/13 17:35:37;;;;;;;6.90;1.85;;;15.70;99.90;;;;;;6308281;22;20012;-85
2022/04/13 17:38:04;;;;;;;7.68;2.08;;;15.70;99.90;;;;;;6308272;22;20425;-87
2022/04/13 17:40:30;;;;;;;9.00;2.92;;;15.60;99.90;;;;;;6281052;22;20343;-86
2022/04/13 17:42:56;;;;;;;7.13;1.75;;;15.60;99.90;;;;;;6255547;22;20019;-87
2022/04/13 17:45:22;;;;;;;8.70;2.60;;;15.60;99.90;;;;;;6306830;22;20011;-86
2022/04/13 17:47:51;;;;;;;7.90;2.72;;;15.60;99.90;;;;;;6281046;22;20019;-87
2022/04/13 17:50:18;;;;;;;8.68;2.45;;;15.50;99.90;;;;;;6281014;22;20051;-87
2022/04/13 17:52:44;;;;;;;8.70;2.15;;;15.50;99.90;;;;;;6280884;22;20016;-87
2022/04/13 17:55:10;;;;;;;7.25;2.15;;;15.50;99.90;;;;;;6280869;22;20475;-89
2022/04/13 17:57:36;;;;;;;11.70;2.75;;;15.50;99.90;;;;;;6255315;22;20007;-88
2022/04/13 18:00:05;;;;;;;7.65;2.58;;;15.40;99.90;;;;;;6306731;22;20050;-88
2022/04/13 18:02:31;;;;;;;10.23;2.45;;;15.40;99.90;;;;;;6280618;22;20054;-86
2022/04/13 18:04:58;;;;;;;9.45;2.35;;;15.40;99.90;;;;;;6255220;22;20020;-87
2022/04/13 18:07:26;;;;;;;11.27;2.65;;;15.40;99.90;;;;;;6255224;22;20191;-89
2022/04/13 18:09:54;;;;;;;9.43;2.50;;;15.30;99.90;;;;;;6280598;22;20049;-87
2022/04/13 18:12:21;;;;;;;7.78;2.10;;;15.40;99.90;;;;;;6308120;22;20015;-87
2022/04/13 18:14:47;;;;;;;8.05;2.50;;;15.30;99.90;;;;;;6255354;22;20060;-87
2022/04/13 18:17:13;;;;;;;6.72;2.30;;;15.30;99.90;;;;;;6280545;22;20472;-87
2022/04/13 18:19:39;;;;;;;7.05;2.08;;;15.30;99.90;;;;;;6255191;22;20026;-86
2022/04/13 18:22:07;;;;;;;8.65;2.33;;;15.20;99.90;;;;;;6308178;22;20399;-89
2022/04/13 18:24:33;;;;;;;8.52;2.70;;;15.20;99.90;;;;;;6280702;22;20090;-88
2022/04/13 18:27:00;;;;;;;;;;;15.10;99.90;;;;;;6281233;22;20022;-90
2022/04/13 18:29:32;;;;;;;9.32;3.33;;;15.10;99.90;;;;;;6253725;22;19918;-91
2022/04/13 18:31:58;;;;;;;9.05;3.30;;;15.10;99.90;;;;;;6281063;22;20018;-91
2022/04/13 18:34:26;;;;;;;12.88;3.38;;;15.10;99.90;;;;;;6255909;22;20113;-91
2022/04/13 18:36:54;;;;;;;10.20;3.42;;;15.10;99.90;;;;;;6254331;22;20445;-89
2022/04/13 18:39:20;;;;;;;12.15;3.63;;;15.10;99.90;;;;;;6280176;22;20026;-89
2022/04/13 18:41:46;;;;;;;10.32;3.83;;;15.00;99.90;;;;;;6255082;22;20019;-88
2022/04/13 18:44:12;;;;;;;14.18;4.22;;;15.00;99.90;;;;;;6306363;22;20476;-88
2022/04/13 18:46:37;;;;;;;12.90;5.13;;;15.00;99.90;;;;;;6280390;22;20011;-88
2022/04/13 18:49:03;;;;;;;12.10;4.97;;;15.00;99.90;;;;;;6280279;22;20023;-87
2022/04/13 18:51:30;;;;;;;13.13;6.05;;;15.00;99.90;;;;;;6280535;22;20026;-87
2022/04/13 18:53:55;;;;;;;13.93;6.22;;;15.00;99.90;;;;;;6280939;22;20011;-87
2022/04/13 18:56:21;;;;;;;15.13;6.65;;;15.00;99.90;;;;;;6308106;22;20011;-90
2022/04/13 18:58:49;;;;;;;11.10;5.18;;;14.90;99.90;;;;;;6255352;22;20094;-89
2022/04/13 19:01:15;;;;;;;8.57;4.10;;;14.90;99.90;;;;;;6278840;22;20018;-92
2022/04/13 19:03:40;;;;;;;12.25;4.70;;;14.90;99.90;;;;;;6278031;22;20401;-90
2022/04/13 19:06:07;;;;;;;14.15;4.35;;;14.90;99.90;;;;;;6247715;22;20086;-91
2022/04/13 19:08:43;;;;;;;11.73;4.00;;;14.90;99.90;;;;;;6247732;22;20015;-89
2022/04/13 19:11:09;;;;;;;11.77;4.00;;;14.90;99.90;;;;;;6249395;22;20098;-89
2022/04/13 19:13:35;;;;;;;10.52;3.95;;;14.90;99.90;;;;;;6250219;22;20528;-91
2022/04/13 19:16:00;;;;;;;11.73;3.70;;;14.80;99.90;;;;;;6277343;22;20016;-90
2022/04/13 19:18:26;;;;;;;12.38;3.83;;;14.80;99.90;;;;;;6277297;22;20020;-91
2022/04/13 19:20:52;;;;;;;10.50;3.40;;;14.80;99.90;;;;;;6250477;22;20015;-87
2022/04/13 19:23:21;;;;;;;;;;;14.70;99.90;;;;;;6250332;22;20020;-87
2022/04/13 19:25:47;;;;;;;14.13;3.55;;;14.70;99.90;;;;;;6248456;22;20253;-86
2022/04/13 19:28:14;;;;;;;10.07;3.30;;;14.60;99.90;;;;;;6249090;22;20015;-87
2022/04/13 19:30:41;;;;;;;9.18;3.08;;;14.70;99.90;;;;;;6249400;22;20094;-86
2022/04/13 19:33:07;;;;;;;10.70;3.60;;;14.60;99.90;;;;;;6224334;22;20027;-87
2022/04/13 19:35:32;;;;;;;15.02;4.20;;;14.60;99.90;;;;;;6249635;22;20011;-86
2022/04/13 19:37:58;;;;;;;10.52;3.45;;;14.50;99.90;;;;;;6224313;22;20336;-88
2022/04/13 19:40:24;;;;;;;10.38;3.83;;;14.50;99.90;;;;;;6276511;22;20088;-88
2022/04/13 19:42:50;;;;;;;11.10;4.03;;;14.50;99.90;;;;;;6276891;22;20012;-87
2022/04/13 19:45:17;;;;;;;9.50;3.90;;;14.50;99.90;;;;;;6249717;22;20468;-88
2022/04/13 19:47:42;;;;;;;9.15;3.95;;;14.50;99.90;;;;;;6276629;22;20367;-88
2022/04/13 19:50:09;;;;;;;11.30;4.32;;;14.50;99.90;;;;;;6249599;22;20099;-88
2022/04/13 19:52:35;;;;;;;10.27;4.72;;;14.40;99.90;;;;;;6249288;22;20023;-85
2022/04/13 19:55:01;;;;;;;10.88;4.03;;;14.40;99.90;;;;;;6276662;22;20016;-86
2022/04/13 19:57:27;;;;;;;10.68;3.90;;;14.40;99.90;;;;;;6249347;22;20054;-87
2022/04/13 19:59:53;;;;;;;12.23;4.45;;;14.30;99.90;;;;;;6251323;22;20028;-89
2022/04/13 20:02:19;;;;;;;12.05;4.60;;;14.30;99.90;;;;;;6238679;22;20023;-91
2022/04/13 20:04:44;;;;;;;15.13;4.90;;;14.30;99.90;;;;;;6282454;22;20019;-91
2022/04/13 20:07:10;;;;;;;11.63;4.72;;;14.30;99.90;;;;;;6309639;22;20021;-86
2022/04/13 20:09:36;;;;;;;10.88;4.75;;;14.30;99.90;;;;;;6308124;22;20341;-91
2022/04/13 20:12:02;;;;;;;9.50;4.60;;;14.30;99.90;;;;;;6256672;22;20049;-91
2022/04/13 20:14:28;;;;;;;13.35;4.90;;;14.20;99.90;;;;;;6309922;22;20011;-92
2022/04/13 20:16:54;;;;;;;12.50;4.63;;;14.20;99.90;;;;;;6308072;22;20105;-91
2022/04/13 20:19:20;;;;;;;14.98;5.05;;;14.20;99.90;;;;;;6282447;22;20734;-89
2022/04/13 20:21:46;;;;;;;13.73;5.07;;;14.20;99.90;;;;;;6282305;22;20018;-88
2022/04/13 20:24:12;;;;;;;11.85;4.93;;;14.20;99.90;;;;;;6281872;22;20482;-88
2022/04/13 20:26:40;;;;;;;9.90;5.20;;;14.20;99.90;;;;;;6282200;22;20050;-92
2022/04/13 20:29:08;;;;;;;13.80;5.30;;;14.10;99.90;;;;;;6280127;22;20098;-89
2022/04/13 20:31:34;;;;;;;14.93;5.50;;;14.10;99.90;;;;;;6254690;22;20019;-87
2022/04/13 20:34:09;;;;;;;13.20;4.65;;;14.10;99.90;;;;;;6254727;22;20089;-89
2022/04/13 20:36:35;;;;;;;12.30;5.35;;;14.00;99.90;;;;;;6281963;22;20049;-87
2022/04/13 20:39:01;;;;;;;13.00;5.05;;;14.00;99.90;;;;;;6281806;22;20011;-89
2022/04/13 20:41:28;;;;;;;14.88;5.38;;;14.00;99.90;;;;;;6282051;22;20012;-87
2022/04/13 20:43:53;;;;;;;;;;;14.00;99.90;;;;;;6282106;22;20019;-86
2022/04/13 20:46:19;;;;;;;11.95;4.80;;;14.00;99.90;;;;;;6281882;22;20218;-85
2022/04/13 20:48:44;;;;;;;10.97;5.13;;;14.00;99.90;;;;;;6281027;22;20050;-87
2022/04/13 20:51:11;;;;;;;12.37;5.87;;;13.90;99.90;;;;;;6309191;22;20345;-87
2022/04/13 20:53:37;;;;;;;16.20;6.25;;;13.90;99.90;;;;;;6281770;22;20076;-89
2022/04/13 20:56:03;;;;;;;13.00;5.75;;;13.90;99.90;;;;;;6256493;22;20094;-87
2022/04/13 20:58:28;;;;;;;12.85;5.45;;;13.90;99.90;;;;;;6309148;22;20047;-91
2022/04/13 21:00:54;;;;;;;12.85;5.68;;;13.90;99.90;;;;;;6307380;22;20494;-85
2022/04/13 21:03:21;;;;;;;11.48;5.97;;;13.80;99.90;;;;;;6285165;22;20323;-86
2022/04/13 21:05:47;;;;;;;12.77;5.72;;;13.80;99.90;;;;;;6277959;22;20019;-87
2022/04/13 21:08:15;;;;;;;12.40;5.43;;;13.70;99.90;;;;;;6277891;22;20015;-88
2022/04/13 21:10:41;;;;;;;12.23;5.90;;;13.70;99.90;;;;;;6277820;22;20330;-89
2022/04/13 21:13:07;;;;;;;13.30;5.88;;;13.70;99.90;;;;;;6225492;22;20015;-88
2022/04/13 21:15:33;;;;;;;15.98;6.28;;;13.70;99.90;;;;;;6250711;22;20008;-88
2022/04/13 21:17:58;;;;;;;10.60;5.60;;;13.70;99.90;;;;;;6250622;22;20449;-88
2022/04/13 21:20:24;;;;;;;13.50;6.10;;;13.60;99.90;;;;;;6277904;22;20019;-90
2022/04/13 21:22:50;;;;;;;13.63;5.27;;;13.60;99.90;;;;;;6250911;22;20012;-88
2022/04/13 21:25:16;;;;;;;12.00;5.70;;;13.60;99.90;;;;;;6250753;22;20715;-88
2022/04/13 21:27:42;;;;;;;10.23;5.72;;;13.50;99.90;;;;;;6250391;22;20020;-87
2022/04/13 21:30:08;;;;;;;11.48;5.85;;;13.50;99.90;;;;;;6251114;22;20453;-88
2022/04/13 21:32:34;;;;;;;13.57;6.00;;;13.40;99.90;;;;;;6277671;22;20012;-92
2022/04/13 21:35:00;;;;;;;11.80;6.25;;;13.40;99.90;;;;;;6250596;22;20016;-88
2022/04/13 21:37:25;;;;;;;14.43;5.30;;;13.40;99.90;;;;;;6225654;22;20445;-88
2022/04/13 21:39:51;;;;;;;12.03;5.60;;;13.40;99.90;;;;;;6251005;22;20086;-86
2022/04/13 21:42:17;;;;;;;11.45;5.82;;;13.40;99.90;;;;;;6250260;22;20020;-90
2022/04/13 21:44:43;;;;;;;14.80;5.80;;;13.40;99.90;;;;;;6277814;22;20030;-87